Vila do Carmo do Tocantins, Brazil
Current Conditions -  °F | °C
As of 12:00 PM on Monday 24 Nov 2014 (Local Time) from SBBE Reporting Station
Scattered Clouds Scattered Clouds  
Wind Chill: 88°   Ceiling: Unl
Heat Index: 93°   Visibility: 6mi
Dew Point: 70°   Wind: 6mph
Humidity: 55%   Direction: 70°ENE
Pressure: 29.85"   Gusts: NA
Location:  2.45°S, 49.44°W
Report Text: SBBE 241500Z 07005KT 9999 SCT033 31/21 Q1011
Loading
Personal Weather Stations






























Interactive Weather Map New forecast layout! Learn more

10-Day Weather Forecast

Advertisements
Track Severe Weather on mobile